Time;durP1;ratioP1;P1;durP2;ratioP2;P2;SDS_P1;SDS_P2;PMS_P1;PMS_P2;Temp;Humidity;BMP_temperature;BMP_pressure;BME280_temperature;BME280_humidity;BME280_pressure;Samples;Min_cycle;Max_cycle;Signal;HPM_P1;HPM_P2
2023/01/08 00:02:00;;;;;;;0.00;0.00;;;;;;;;;;5113934;28;20482;-80
2023/01/08 00:04:26;;;;;;;0.00;0.00;;;;;;;;;;5115344;28;20432;-80
2023/01/08 00:06:52;;;;;;;0.30;0.30;;;;;;;;;;5114094;28;20039;-81
2023/01/08 00:09:19;;;;;;;0.00;0.00;;;;;;;;;;5114350;28;20218;-80
2023/01/08 00:11:48;;;;;;;0.00;0.00;;;;;;;;;;5115172;28;20086;-80
2023/01/08 00:14:14;;;;;;;0.00;0.00;;;;;;;;;;5115259;28;20050;-80
2023/01/08 00:16:40;;;;;;;0.00;0.00;;;;;;;;;;5115406;28;20036;-80
2023/01/08 00:19:06;;;;;;;0.00;0.00;;;;;;;;;;5114327;28;20142;-80
2023/01/08 00:21:32;;;;;;;0.00;0.00;;;;;;;;;;5114047;28;20039;-82
2023/01/08 00:23:58;;;;;;;0.00;0.00;;;;;;;;;;5115585;28;20038;-80
2023/01/08 00:26:24;;;;;;;0.00;0.00;;;;;;;;;;5113842;28;20122;-80
2023/01/08 00:28:50;;;;;;;0.00;0.00;;;;;;;;;;5113624;28;20544;-80
2023/01/08 00:31:16;;;;;;;0.00;0.00;;;;;;;;;;5113500;28;20075;-80
2023/01/08 00:33:42;;;;;;;0.00;0.00;;;;;;;;;;5114592;28;20098;-79
2023/01/08 00:36:16;;;;;;;0.00;0.00;;;;;;;;;;5114649;28;20051;-80
2023/01/08 00:38:44;;;;;;;0.00;0.00;;;;;;;;;;5113746;28;20055;-80
2023/01/08 00:41:11;;;;;;;0.00;0.00;;;;;;;;;;5113327;28;20052;-80
2023/01/08 00:43:37;;;;;;;0.00;0.00;;;;;;;;;;5113395;28;20119;-80
2023/01/08 00:46:03;;;;;;;0.00;0.00;;;;;;;;;;5112912;28;20040;-80
2023/01/08 00:48:30;;;;;;;0.00;0.00;;;;;;;;;;5114518;28;20051;-80
2023/01/08 00:50:56;;;;;;;0.00;0.00;;;;;;;;;;5113093;28;20048;-80
2023/01/08 00:53:23;;;;;;;0.00;0.00;;;;;;;;;;5112908;28;20047;-80
2023/01/08 00:55:49;;;;;;;0.00;0.00;;;;;;;;;;5113037;28;20040;-80
2023/01/08 00:58:15;;;;;;;0.00;0.00;;;;;;;;;;5112828;28;20050;-80
2023/01/08 01:00:41;;;;;;;0.00;0.00;;;;;;;;;;5112945;28;20043;-80
2023/01/08 01:03:07;;;;;;;0.00;0.00;;;;;;;;;;5114260;28;20045;-80
2023/01/08 01:05:33;;;;;;;0.00;0.00;;;;;;;;;;5114304;28;20043;-80
2023/01/08 01:07:59;;;;;;;0.00;0.00;;;;;;;;;;5113901;28;20101;-80
2023/01/08 01:10:25;;;;;;;0.00;0.00;;;;;;;;;;5112850;28;20044;-79
2023/01/08 01:12:51;;;;;;;0.00;0.00;;;;;;;;;;5112978;28;20154;-80
2023/01/08 01:15:18;;;;;;;0.00;0.00;;;;;;;;;;5114174;28;20047;-80
2023/01/08 01:17:45;;;;;;;0.00;0.00;;;;;;;;;;5113738;28;20048;-79
2023/01/08 01:20:13;;;;;;;0.00;0.00;;;;;;;;;;5112804;28;20490;-80
2023/01/08 01:22:39;;;;;;;0.00;0.00;;;;;;;;;;5112530;28;20503;-80
2023/01/08 01:25:05;;;;;;;0.00;0.00;;;;;;;;;;5112408;28;20124;-80
2023/01/08 01:27:31;;;;;;;0.00;0.00;;;;;;;;;;5112426;28;20036;-81
2023/01/08 01:29:57;;;;;;;0.08;0.00;;;;;;;;;;5113853;28;20065;-80
2023/01/08 01:32:23;;;;;;;0.00;0.00;;;;;;;;;;5112319;28;20040;-80
2023/01/08 01:34:49;;;;;;;0.30;0.20;;;;;;;;;;5111405;28;20517;-80
2023/01/08 01:37:15;;;;;;;0.00;0.00;;;;;;;;;;5113238;28;20085;-80
2023/01/08 01:39:48;;;;;;;0.00;0.00;;;;;;;;;;5113317;28;20450;-80
2023/01/08 01:42:38;;;;;;;0.00;0.00;;;;;;;;;;5113603;28;20047;-80
2023/01/08 01:45:01;;;;;;;0.00;0.00;;;;;;;;;;5112352;28;20157;-80
2023/01/08 01:47:31;;;;;;;0.00;0.00;;;;;;;;;;5113079;28;20067;-80
2023/01/08 01:50:16;;;;;;;0.00;0.00;;;;;;;;;;5112316;28;20540;-80
2023/01/08 01:52:48;;;;;;;0.00;0.00;;;;;;;;;;5094711;28;20050;-79
2023/01/08 01:55:15;;;;;;;0.00;0.00;;;;;;;;;;5111788;28;20044;-80
2023/01/08 01:57:45;;;;;;;0.00;0.00;;;;;;;;;;5111853;28;20050;-80
2023/01/08 02:00:11;;;;;;;0.00;0.00;;;;;;;;;;5111739;28;20036;-80
2023/01/08 02:02:37;;;;;;;0.00;0.00;;;;;;;;;;5111609;28;20118;-80
2023/01/08 02:05:03;;;;;;;0.00;0.00;;;;;;;;;;5113029;28;20457;-80
2023/01/08 02:07:35;;;;;;;0.00;0.00;;;;;;;;;;5111571;28;20035;-80
2023/01/08 02:10:13;;;;;;;0.00;0.00;;;;;;;;;;5111620;28;20092;-80
2023/01/08 02:12:44;;;;;;;0.00;0.00;;;;;;;;;;5111318;28;20046;-80
2023/01/08 02:15:18;;;;;;;0.00;0.00;;;;;;;;;;5111817;28;20043;-80
2023/01/08 02:17:47;;;;;;;0.00;0.00;;;;;;;;;;5112625;28;20047;-80
2023/01/08 02:20:22;;;;;;;0.00;0.00;;;;;;;;;;5113080;28;20108;-80
2023/01/08 02:22:57;;;;;;;0.05;0.05;;;;;;;;;;5112703;28;20032;-80
2023/01/08 02:25:47;;;;;;;0.00;0.00;;;;;;;;;;5112659;28;20447;-80
2023/01/08 02:28:14;;;;;;;0.00;0.00;;;;;;;;;;5098406;28;20052;-80
2023/01/08 02:30:41;;;;;;;0.00;0.00;;;;;;;;;;5112774;28;20044;-80
2023/01/08 02:33:07;;;;;;;0.00;0.00;;;;;;;;;;5111322;28;20056;-80
2023/01/08 02:35:38;;;;;;;0.00;0.00;;;;;;;;;;5112557;28;20080;-79
2023/01/08 02:38:04;;;;;;;0.00;0.00;;;;;;;;;;5111210;28;20097;-80
2023/01/08 02:40:35;;;;;;;0.00;0.00;;;;;;;;;;5111281;28;20588;-80
2023/01/08 02:43:18;;;;;;;0.00;0.00;;;;;;;;;;5112574;28;20046;-80
2023/01/08 02:45:53;;;;;;;0.00;0.00;;;;;;;;;;5112721;28;20035;-80
2023/01/08 02:48:21;;;;;;;0.00;0.00;;;;;;;;;;5115233;28;20075;-80
2023/01/08 02:50:54;;;;;;;0.00;0.00;;;;;;;;;;5115643;28;20047;-80
2023/01/08 02:53:21;;;;;;;0.00;0.00;;;;;;;;;;5115465;28;20406;-80
2023/01/08 02:56:07;;;;;;;0.00;0.00;;;;;;;;;;5116617;28;20066;-81
2023/01/08 02:58:34;;;;;;;0.00;0.00;;;;;;;;;;5116223;28;20048;-80
2023/01/08 03:01:06;;;;;;;0.00;0.00;;;;;;;;;;5116507;28;20418;-80
2023/01/08 03:03:32;;;;;;;0.00;0.00;;;;;;;;;;5114936;28;20048;-80
2023/01/08 03:06:01;;;;;;;0.00;0.00;;;;;;;;;;5115265;28;20118;-80
2023/01/08 03:08:27;;;;;;;0.00;0.00;;;;;;;;;;5116298;28;20437;-80
2023/01/08 03:11:04;;;;;;;0.00;0.00;;;;;;;;;;5115029;28;20116;-80
2023/01/08 03:13:37;;;;;;;0.00;0.00;;;;;;;;;;5116120;28;20044;-80
2023/01/08 03:16:05;;;;;;;0.00;0.00;;;;;;;;;;5116099;28;20032;-80
2023/01/08 03:18:35;;;;;;;0.00;0.00;;;;;;;;;;5114833;28;20039;-80
2023/01/08 03:21:02;;;;;;;0.00;0.00;;;;;;;;;;5114836;28;20040;-80
2023/01/08 03:23:31;;;;;;;0.00;0.00;;;;;;;;;;5114431;28;20043;-79
2023/01/08 03:25:58;;;;;;;0.00;0.00;;;;;;;;;;5116067;28;20031;-80
2023/01/08 03:28:29;;;;;;;0.00;0.00;;;;;;;;;;5114447;28;20040;-80
2023/01/08 03:30:56;;;;;;;0.00;0.00;;;;;;;;;;5114900;28;20490;-79
2023/01/08 03:33:23;;;;;;;0.00;0.00;;;;;;;;;;5115617;28;20070;-80
2023/01/08 03:35:50;;;;;;;0.00;0.00;;;;;;;;;;5114383;28;20054;-80
2023/01/08 03:38:20;;;;;;;0.00;0.00;;;;;;;;;;5115705;28;20044;-80
2023/01/08 03:40:48;;;;;;;0.00;0.00;;;;;;;;;;5115929;28;20035;-80
2023/01/08 03:43:14;;;;;;;0.00;0.00;;;;;;;;;;5115393;28;20493;-80
2023/01/08 03:45:43;;;;;;;0.00;0.00;;;;;;;;;;5114401;28;20050;-80
2023/01/08 03:48:09;;;;;;;0.00;0.00;;;;;;;;;;5097283;28;20082;-80
2023/01/08 03:50:37;;;;;;;0.00;0.00;;;;;;;;;;5115596;28;20043;-80
2023/01/08 03:53:03;;;;;;;0.00;0.00;;;;;;;;;;5114506;28;20048;-80
2023/01/08 03:55:29;;;;;;;0.00;0.00;;;;;;;;;;5114088;28;20478;-80
2023/01/08 03:57:54;;;;;;;0.00;0.00;;;;;;;;;;5113563;28;20047;-80
2023/01/08 04:00:20;;;;;;;0.00;0.00;;;;;;;;;;5113971;28;20455;-79
2023/01/08 04:02:46;;;;;;;0.00;0.00;;;;;;;;;;5113954;28;20076;-80
2023/01/08 04:05:12;;;;;;;0.00;0.00;;;;;;;;;;5113696;28;20476;-80
2023/01/08 04:07:38;;;;;;;0.00;0.00;;;;;;;;;;5114178;28;20043;-80
2023/01/08 04:10:05;;;;;;;0.00;0.00;;;;;;;;;;5114036;28;20395;-80
2023/01/08 04:12:31;;;;;;;0.00;0.00;;;;;;;;;;5113897;28;20039;-80
2023/01/08 04:14:56;;;;;;;0.00;0.00;;;;;;;;;;5114767;28;20063;-80
2023/01/08 04:17:22;;;;;;;0.00;0.00;;;;;;;;;;5115116;28;20115;-80
2023/01/08 04:19:48;;;;;;;0.00;0.00;;;;;;;;;;5114669;28;20494;-80
2023/01/08 04:22:14;;;;;;;0.00;0.00;;;;;;;;;;5113906;28;20036;-80
2023/01/08 04:24:40;;;;;;;0.00;0.00;;;;;;;;;;5113300;28;20624;-79
2023/01/08 04:27:06;;;;;;;0.00;0.00;;;;;;;;;;5113556;28;20062;-80
2023/01/08 04:29:34;;;;;;;0.00;0.00;;;;;;;;;;5113310;28;20112;-80
2023/01/08 04:32:00;;;;;;;0.00;0.00;;;;;;;;;;5114798;28;20126;-80
2023/01/08 04:34:26;;;;;;;0.00;0.00;;;;;;;;;;5112926;28;20051;-80
2023/01/08 04:36:53;;;;;;;0.00;0.00;;;;;;;;;;5113435;28;20092;-80
2023/01/08 04:39:19;;;;;;;0.00;0.00;;;;;;;;;;5113074;28;20050;-80
2023/01/08 04:41:45;;;;;;;0.00;0.00;;;;;;;;;;5113305;28;20039;-80
2023/01/08 04:44:11;;;;;;;0.00;0.00;;;;;;;;;;5113207;28;20040;-80
2023/01/08 04:46:37;;;;;;;0.00;0.00;;;;;;;;;;5113388;28;20039;-80
2023/01/08 04:49:03;;;;;;;0.00;0.00;;;;;;;;;;5079417;28;20497;-80
2023/01/08 04:51:29;;;;;;;0.00;0.00;;;;;;;;;;5113166;28;20097;-80
2023/01/08 04:53:55;;;;;;;0.00;0.00;;;;;;;;;;5114367;28;20043;-80
2023/01/08 04:56:22;;;;;;;0.00;0.00;;;;;;;;;;5113195;28;20040;-80
2023/01/08 04:58:48;;;;;;;0.00;0.00;;;;;;;;;;5114203;28;20043;-80
2023/01/08 05:01:22;;;;;;;0.00;0.00;;;;;;;;;;5112931;28;20038;-80
2023/01/08 05:03:52;;;;;;;0.00;0.00;;;;;;;;;;5114195;28;20453;-80
2023/01/08 05:06:18;;;;;;;0.00;0.00;;;;;;;;;;5112868;28;20122;-80
2023/01/08 05:08:44;;;;;;;0.00;0.00;;;;;;;;;;5112053;28;20078;-80
2023/01/08 05:11:10;;;;;;;0.00;0.00;;;;;;;;;;5112605;28;20055;-80
2023/01/08 05:13:36;;;;;;;0.00;0.00;;;;;;;;;;5114096;28;20046;-80
2023/01/08 05:16:02;;;;;;;0.00;0.00;;;;;;;;;;5112366;28;20484;-80
2023/01/08 05:18:29;;;;;;;0.00;0.00;;;;;;;;;;5112680;28;20043;-80
2023/01/08 05:20:55;;;;;;;0.00;0.00;;;;;;;;;;5112787;28;20075;-80
2023/01/08 05:23:21;;;;;;;0.00;0.00;;;;;;;;;;5112581;28;20042;-80
2023/01/08 05:25:47;;;;;;;0.00;0.00;;;;;;;;;;5113611;28;20031;-80
2023/01/08 05:28:13;;;;;;;0.00;0.00;;;;;;;;;;5113976;28;20082;-80
2023/01/08 05:30:39;;;;;;;0.00;0.00;;;;;;;;;;5112933;28;20122;-81
2023/01/08 05:33:05;;;;;;;0.00;0.00;;;;;;;;;;5113761;28;20063;-80
2023/01/08 05:35:31;;;;;;;0.00;0.00;;;;;;;;;;5112425;28;20054;-80
2023/01/08 05:37:59;;;;;;;0.00;0.00;;;;;;;;;;5112380;28;20051;-80
2023/01/08 05:40:25;;;;;;;0.00;0.00;;;;;;;;;;5112253;28;20467;-80
2023/01/08 05:42:51;;;;;;;0.00;0.00;;;;;;;;;;5112547;28;20035;-80
2023/01/08 05:45:17;;;;;;;0.00;0.00;;;;;;;;;;5112321;28;20047;-80
2023/01/08 05:47:43;;;;;;;0.00;0.00;;;;;;;;;;5113934;28;20501;-80
2023/01/08 05:50:09;;;;;;;0.00;0.00;;;;;;;;;;5112725;28;20039;-80
2023/01/08 05:52:35;;;;;;;0.00;0.00;;;;;;;;;;5113946;28;20378;-80
2023/01/08 05:55:01;;;;;;;0.00;0.00;;;;;;;;;;5112067;28;20118;-80
2023/01/08 05:57:27;;;;;;;0.00;0.00;;;;;;;;;;5113337;28;20394;-80
2023/01/08 05:59:53;;;;;;;0.00;0.00;;;;;;;;;;5113006;28;20123;-80
2023/01/08 06:02:19;;;;;;;0.00;0.00;;;;;;;;;;5112137;28;20051;-80
2023/01/08 06:04:45;;;;;;;0.00;0.00;;;;;;;;;;5113142;28;20382;-80
2023/01/08 06:07:11;;;;;;;0.00;0.00;;;;;;;;;;5113181;28;20032;-80
2023/01/08 06:09:37;;;;;;;0.00;0.00;;;;;;;;;;5111941;28;20094;-80
2023/01/08 06:12:03;;;;;;;0.00;0.00;;;;;;;;;;5111873;28;20054;-80
2023/01/08 06:14:29;;;;;;;0.00;0.00;;;;;;;;;;5111845;28;20043;-80
2023/01/08 06:16:55;;;;;;;0.00;0.00;;;;;;;;;;5111458;28;20413;-80
2023/01/08 06:19:21;;;;;;;0.00;0.00;;;;;;;;;;5111674;28;20046;-80
2023/01/08 06:21:47;;;;;;;0.00;0.00;;;;;;;;;;5112935;28;20047;-80
2023/01/08 06:24:13;;;;;;;0.00;0.00;;;;;;;;;;5111570;28;20035;-80
2023/01/08 06:26:39;;;;;;;0.00;0.00;;;;;;;;;;5112598;28;20031;-80
2023/01/08 06:29:06;;;;;;;0.00;0.00;;;;;;;;;;5111454;28;20117;-80
2023/01/08 06:31:32;;;;;;;0.00;0.00;;;;;;;;;;5111246;28;20040;-80
2023/01/08 06:33:58;;;;;;;0.00;0.00;;;;;;;;;;5111243;28;20094;-79
2023/01/08 06:36:24;;;;;;;0.00;0.00;;;;;;;;;;5111117;28;20067;-80
2023/01/08 06:38:50;;;;;;;0.00;0.00;;;;;;;;;;5112628;28;20092;-80
2023/01/08 06:41:15;;;;;;;0.00;0.00;;;;;;;;;;5094184;28;20070;-80
2023/01/08 06:43:41;;;;;;;0.00;0.00;;;;;;;;;;5111655;28;20071;-80
2023/01/08 06:46:08;;;;;;;0.00;0.00;;;;;;;;;;5111018;28;20047;-80
2023/01/08 06:48:35;;;;;;;0.00;0.00;;;;;;;;;;5111572;28;20435;-79
2023/01/08 06:51:01;;;;;;;0.00;0.00;;;;;;;;;;5111185;28;20054;-80
2023/01/08 06:53:27;;;;;;;0.00;0.00;;;;;;;;;;5111240;28;20044;-80
2023/01/08 06:55:55;;;;;;;0.00;0.00;;;;;;;;;;5110961;28;20044;-80
2023/01/08 06:58:31;;;;;;;0.00;0.00;;;;;;;;;;5112765;28;20044;-80
2023/01/08 07:00:57;;;;;;;0.00;0.00;;;;;;;;;;5112472;28;20043;-80
2023/01/08 07:03:23;;;;;;;0.00;0.00;;;;;;;;;;5111340;28;20040;-80
2023/01/08 07:05:49;;;;;;;0.00;0.00;;;;;;;;;;5111133;28;20070;-80
2023/01/08 07:08:16;;;;;;;0.00;0.00;;;;;;;;;;5112604;28;20048;-80
2023/01/08 07:10:44;;;;;;;0.00;0.00;;;;;;;;;;5111268;28;20431;-80
2023/01/08 07:13:11;;;;;;;0.00;0.00;;;;;;;;;;5112699;28;20119;-80
2023/01/08 07:15:38;;;;;;;0.00;0.00;;;;;;;;;;5093771;28;20047;-81
2023/01/08 07:18:08;;;;;;;0.00;0.00;;;;;;;;;;5111022;28;20108;-80
2023/01/08 07:20:34;;;;;;;0.00;0.00;;;;;;;;;;5112124;28;20572;-80
2023/01/08 07:23:04;;;;;;;0.00;0.00;;;;;;;;;;5110926;28;20051;-80
2023/01/08 07:25:31;;;;;;;0.00;0.00;;;;;;;;;;5110763;28;20429;-80
2023/01/08 07:27:57;;;;;;;0.00;0.00;;;;;;;;;;5111283;28;20386;-80
2023/01/08 07:30:23;;;;;;;0.00;0.00;;;;;;;;;;5093581;28;20442;-80
2023/01/08 07:32:49;;;;;;;0.00;0.00;;;;;;;;;;5113560;28;20048;-80
2023/01/08 07:35:15;;;;;;;0.00;0.00;;;;;;;;;;5114962;28;20083;-80
2023/01/08 07:37:42;;;;;;;0.00;0.00;;;;;;;;;;5115676;28;20035;-80
2023/01/08 07:40:09;;;;;;;0.00;0.00;;;;;;;;;;5114910;28;20390;-80
2023/01/08 07:42:35;;;;;;;0.00;0.00;;;;;;;;;;5115893;28;20396;-80
2023/01/08 07:45:01;;;;;;;0.00;0.00;;;;;;;;;;5114613;28;20509;-83
2023/01/08 07:47:27;;;;;;;0.00;0.00;;;;;;;;;;5114219;28;20069;-80
2023/01/08 07:49:53;;;;;;;0.00;0.00;;;;;;;;;;5114511;28;20396;-80
2023/01/08 07:52:19;;;;;;;0.00;0.00;;;;;;;;;;5114565;28;20047;-80
2023/01/08 07:54:45;;;;;;;0.00;0.00;;;;;;;;;;5115595;28;20063;-80
2023/01/08 07:57:11;;;;;;;0.00;0.00;;;;;;;;;;5114237;28;20051;-80
2023/01/08 07:59:37;;;;;;;0.00;0.00;;;;;;;;;;5114160;28;20039;-80
2023/01/08 08:02:04;;;;;;;0.00;0.00;;;;;;;;;;5114241;28;20039;-80
2023/01/08 08:04:30;;;;;;;0.00;0.00;;;;;;;;;;5114274;28;20040;-81
2023/01/08 08:06:56;;;;;;;0.35;0.10;;;;;;;;;;5113959;28;20047;-81
2023/01/08 08:09:22;;;;;;;0.00;0.00;;;;;;;;;;5115445;28;20058;-80
2023/01/08 08:11:48;;;;;;;0.00;0.00;;;;;;;;;;5114007;28;20536;-80
2023/01/08 08:14:14;;;;;;;0.00;0.00;;;;;;;;;;5115316;28;20039;-80
2023/01/08 08:16:40;;;;;;;0.00;0.00;;;;;;;;;;5113893;28;20482;-81
2023/01/08 08:19:06;;;;;;;0.00;0.00;;;;;;;;;;5114125;28;20039;-80
2023/01/08 08:21:32;;;;;;;0.00;0.00;;;;;;;;;;5113642;28;20043;-81
2023/01/08 08:23:58;;;;;;;0.00;0.00;;;;;;;;;;5115063;28;20044;-81
2023/01/08 08:26:24;;;;;;;0.00;0.00;;;;;;;;;;5113631;28;20126;-81
2023/01/08 08:28:49;;;;;;;0.00;0.00;;;;;;;;;;5113759;28;20040;-80
2023/01/08 08:31:15;;;;;;;0.00;0.00;;;;;;;;;;5114756;28;20124;-81
2023/01/08 08:33:41;;;;;;;0.00;0.00;;;;;;;;;;5114916;28;20061;-79
2023/01/08 08:36:08;;;;;;;0.00;0.00;;;;;;;;;;5114751;28;20556;-79
2023/01/08 08:38:34;;;;;;;0.00;0.00;;;;;;;;;;5113466;28;20039;-79
2023/01/08 08:41:00;;;;;;;0.00;0.00;;;;;;;;;;5114737;28;20092;-79
2023/01/08 08:43:26;;;;;;;0.00;0.00;;;;;;;;;;5113248;28;20043;-79
2023/01/08 08:45:54;;;;;;;0.00;0.00;;;;;;;;;;5113163;28;20053;-80
2023/01/08 08:48:20;;;;;;;0.00;0.00;;;;;;;;;;5113092;28;20311;-80
2023/01/08 08:50:46;;;;;;;0.00;0.00;;;;;;;;;;5114794;28;20549;-80
2023/01/08 08:53:12;;;;;;;0.00;0.00;;;;;;;;;;5114394;28;20047;-80
2023/01/08 08:55:39;;;;;;;0.00;0.00;;;;;;;;;;5114610;28;20076;-80
2023/01/08 08:58:06;;;;;;;0.00;0.00;;;;;;;;;;5112913;28;20044;-80
2023/01/08 09:00:33;;;;;;;0.00;0.00;;;;;;;;;;5114707;28;20513;-79
2023/01/08 09:02:59;;;;;;;0.00;0.00;;;;;;;;;;5114177;28;20048;-80
2023/01/08 09:05:25;;;;;;;0.00;0.00;;;;;;;;;;5112702;28;20062;-80
2023/01/08 09:07:51;;;;;;;0.00;0.00;;;;;;;;;;5112778;28;20104;-80
2023/01/08 09:10:17;;;;;;;0.40;0.25;;;;;;;;;;5112927;28;20039;-79
2023/01/08 09:12:43;;;;;;;0.00;0.00;;;;;;;;;;5112474;28;20046;-81
2023/01/08 09:15:09;;;;;;;0.00;0.00;;;;;;;;;;5114023;28;20118;-80
2023/01/08 09:17:35;;;;;;;0.00;0.00;;;;;;;;;;5112442;28;20067;-81
2023/01/08 09:20:01;;;;;;;0.00;0.00;;;;;;;;;;5112568;28;20058;-80
2023/01/08 09:22:27;;;;;;;0.00;0.00;;;;;;;;;;5112229;28;20040;-84
2023/01/08 09:24:54;;;;;;;0.00;0.00;;;;;;;;;;5112863;28;20042;-81
2023/01/08 09:27:20;;;;;;;0.00;0.00;;;;;;;;;;5112617;28;20139;-80
2023/01/08 09:29:46;;;;;;;0.00;0.00;;;;;;;;;;5112751;28;20055;-80
2023/01/08 09:32:12;;;;;;;0.00;0.00;;;;;;;;;;5113405;28;20397;-81
2023/01/08 09:34:38;;;;;;;0.00;0.00;;;;;;;;;;5112067;28;20056;-80
2023/01/08 09:37:04;;;;;;;0.00;0.00;;;;;;;;;;5112313;28;20059;-81
2023/01/08 09:39:30;;;;;;;0.00;0.00;;;;;;;;;;5113735;28;20152;-81
2023/01/08 09:41:58;;;;;;;0.00;0.00;;;;;;;;;;5112404;28;20150;-81
2023/01/08 09:44:27;;;;;;;0.00;0.00;;;;;;;;;;5112332;28;20104;-81
2023/01/08 09:46:55;;;;;;;0.00;0.00;;;;;;;;;;5112096;28;20093;-81
2023/01/08 09:49:22;;;;;;;0.00;0.00;;;;;;;;;;5112192;28;20075;-81
2023/01/08 09:51:48;;;;;;;0.00;0.00;;;;;;;;;;5112281;28;20044;-81
2023/01/08 09:54:15;;;;;;;0.00;0.00;;;;;;;;;;5112818;28;20090;-81
2023/01/08 09:56:41;;;;;;;0.00;0.00;;;;;;;;;;5113502;28;20114;-81
2023/01/08 09:59:11;;;;;;;0.00;0.00;;;;;;;;;;5111746;28;20043;-81
2023/01/08 10:01:39;;;;;;;0.00;0.00;;;;;;;;;;5112407;28;20386;-81
2023/01/08 10:04:10;;;;;;;0.00;0.00;;;;;;;;;;5111945;28;20040;-80
2023/01/08 10:06:36;;;;;;;0.00;0.00;;;;;;;;;;5112325;28;20481;-80
2023/01/08 10:09:02;;;;;;;0.00;0.00;;;;;;;;;;5112384;28;20047;-81
2023/01/08 10:11:32;;;;;;;0.00;0.00;;;;;;;;;;5112164;28;20040;-81
2023/01/08 10:13:58;;;;;;;0.00;0.00;;;;;;;;;;5111922;28;20528;-81
2023/01/08 10:16:27;;;;;;;0.00;0.00;;;;;;;;;;5111535;28;20075;-81
2023/01/08 10:18:53;;;;;;;0.00;0.00;;;;;;;;;;5111435;28;20043;-81
2023/01/08 10:21:20;;;;;;;0.00;0.00;;;;;;;;;;5111905;28;20119;-81
2023/01/08 10:23:52;;;;;;;0.00;0.00;;;;;;;;;;5111445;28;20036;-81
2023/01/08 10:26:46;;;;;;;0.00;0.00;;;;;;;;;;5111998;28;20039;-81
2023/01/08 10:29:16;;;;;;;0.00;0.00;;;;;;;;;;5109567;28;20069;-81
2023/01/08 10:31:47;;;;;;;0.00;0.00;;;;;;;;;;5108208;28;20359;-81
2023/01/08 10:34:20;;;;;;;0.00;0.00;;;;;;;;;;5112430;28;20047;-81
2023/01/08 10:36:46;;;;;;;0.00;0.00;;;;;;;;;;5113059;28;20558;-81
2023/01/08 10:39:21;;;;;;;0.00;0.00;;;;;;;;;;5102266;28;20577;-81
2023/01/08 10:41:48;;;;;;;0.00;0.00;;;;;;;;;;5098070;28;20471;-81
2023/01/08 10:44:16;;;;;;;0.30;0.00;;;;;;;;;;5091493;28;20044;-81
2023/01/08 10:46:47;;;;;;;0.00;0.00;;;;;;;;;;5095227;28;20040;-81
2023/01/08 10:49:26;;;;;;;0.00;0.00;;;;;;;;;;5091939;28;20487;-81
2023/01/08 10:51:54;;;;;;;0.00;0.00;;;;;;;;;;5090811;28;20052;-81
2023/01/08 10:54:32;;;;;;;0.00;0.00;;;;;;;;;;5074256;28;20055;-81
2023/01/08 10:56:58;;;;;;;0.00;0.00;;;;;;;;;;5091351;28;20105;-81
2023/01/08 10:59:24;;;;;;;0.00;0.00;;;;;;;;;;5090796;28;20571;-81
2023/01/08 11:01:52;;;;;;;0.10;0.05;;;;;;;;;;5091124;28;20089;-81
2023/01/08 11:04:31;;;;;;;0.00;0.00;;;;;;;;;;5090977;28;20032;-81
2023/01/08 11:06:58;;;;;;;0.00;0.00;;;;;;;;;;5092867;28;20345;-81
2023/01/08 11:09:27;;;;;;;0.80;0.10;;;;;;;;;;5095094;28;20043;-81
2023/01/08 11:11:53;;;;;;;0.00;0.00;;;;;;;;;;5095132;28;20089;-81
2023/01/08 11:14:22;;;;;;;0.00;0.00;;;;;;;;;;5095859;28;20122;-81
2023/01/08 11:16:48;;;;;;;0.00;0.00;;;;;;;;;;5094765;28;20040;-81
2023/01/08 11:19:19;;;;;;;0.00;0.00;;;;;;;;;;5094677;28;20036;-80
2023/01/08 11:22:00;;;;;;;0.00;0.00;;;;;;;;;;5094741;28;20039;-80
2023/01/08 11:24:26;;;;;;;0.00;0.00;;;;;;;;;;5095769;28;20047;-81
2023/01/08 11:26:54;;;;;;;0.00;0.00;;;;;;;;;;5077668;28;20395;-80
2023/01/08 11:29:28;;;;;;;0.00;0.00;;;;;;;;;;5094496;28;20073;-81
2023/01/08 11:32:09;;;;;;;0.00;0.00;;;;;;;;;;5077834;28;20044;-81
2023/01/08 11:34:47;;;;;;;0.00;0.00;;;;;;;;;;5094231;28;20380;-81
2023/01/08 11:37:29;;;;;;;0.00;0.00;;;;;;;;;;5095986;28;20044;-80
2023/01/08 11:39:56;;;;;;;0.00;0.00;;;;;;;;;;5094424;28;20051;-80
2023/01/08 11:42:31;;;;;;;0.00;0.00;;;;;;;;;;5094511;28;20051;-80
2023/01/08 11:45:06;;;;;;;0.00;0.00;;;;;;;;;;5095523;28;20040;-80
2023/01/08 11:47:32;;;;;;;0.00;0.00;;;;;;;;;;5094590;28;20047;-81
2023/01/08 11:50:17;;;;;;;0.00;0.00;;;;;;;;;;5077344;28;20048;-81
2023/01/08 11:53:00;;;;;;;0.00;0.00;;;;;;;;;;5095857;28;20036;-81
2023/01/08 11:55:44;;;;;;;0.00;0.00;;;;;;;;;;5094611;28;20048;-80
2023/01/08 11:58:23;;;;;;;0.00;0.00;;;;;;;;;;5094131;28;20522;-79
2023/01/08 12:00:52;;;;;;;0.00;0.00;;;;;;;;;;5077432;28;20039;-80
2023/01/08 12:03:21;;;;;;;0.00;0.00;;;;;;;;;;5095343;28;20036;-80
2023/01/08 12:06:00;;;;;;;0.00;0.00;;;;;;;;;;5094263;28;20072;-80
2023/01/08 12:08:43;;;;;;;0.00;0.00;;;;;;;;;;5094288;28;20052;-80
2023/01/08 12:11:12;;;;;;;0.00;0.00;;;;;;;;;;5094215;28;20040;-80
2023/01/08 12:13:57;;;;;;;0.00;0.00;;;;;;;;;;5095205;28;20066;-80
2023/01/08 12:16:42;;;;;;;0.00;0.00;;;;;;;;;;5095007;28;20035;-82
2023/01/08 12:19:07;;;;;;;0.00;0.00;;;;;;;;;;5094339;28;20048;-80
2023/01/08 12:21:41;;;;;;;0.00;0.00;;;;;;;;;;5093844;28;20169;-80
2023/01/08 12:24:15;;;;;;;0.00;0.00;;;;;;;;;;5094903;28;20042;-81
2023/01/08 12:26:44;;;;;;;0.00;0.00;;;;;;;;;;5093967;28;20048;-80
2023/01/08 12:29:27;;;;;;;0.00;0.00;;;;;;;;;;5093570;28;20123;-80
2023/01/08 12:32:13;;;;;;;0.00;0.00;;;;;;;;;;5093728;28;20383;-80
2023/01/08 12:34:39;;;;;;;;;;;;;;;;;;5093636;28;20063;-80
2023/01/08 12:37:09;;;;;;;0.00;0.00;;;;;;;;;;5076765;28;19922;-80
2023/01/08 12:39:43;;;;;;;0.00;0.00;;;;;;;;;;5093196;28;20040;-79
2023/01/08 12:42:12;;;;;;;0.00;0.00;;;;;;;;;;5094920;28;20044;-80
2023/01/08 12:44:39;;;;;;;0.00;0.00;;;;;;;;;;5093229;28;20428;-80
2023/01/08 12:47:06;;;;;;;0.00;0.00;;;;;;;;;;5093503;28;20097;-80
2023/01/08 12:49:35;;;;;;;0.00;0.00;;;;;;;;;;5094107;28;20532;-80
2023/01/08 12:52:04;;;;;;;0.00;0.00;;;;;;;;;;5093333;28;20047;-80
2023/01/08 12:54:37;;;;;;;0.00;0.00;;;;;;;;;;5075961;28;20051;-80
2023/01/08 12:57:03;;;;;;;0.00;0.00;;;;;;;;;;5093096;28;20064;-80
2023/01/08 12:59:48;;;;;;;0.00;0.00;;;;;;;;;;5094056;28;20048;-80
2023/01/08 13:02:33;;;;;;;0.00;0.00;;;;;;;;;;5092804;28;20119;-82
2023/01/08 13:05:10;;;;;;;0.00;0.00;;;;;;;;;;5092509;28;20404;-80
2023/01/08 13:07:42;;;;;;;0.00;0.00;;;;;;;;;;5094208;28;20043;-80
2023/01/08 13:10:18;;;;;;;0.00;0.00;;;;;;;;;;5093790;28;20086;-81
2023/01/08 13:12:49;;;;;;;0.00;0.00;;;;;;;;;;5093915;28;20040;-80
2023/01/08 13:15:21;;;;;;;0.00;0.00;;;;;;;;;;5092012;28;20093;-81
2023/01/08 13:17:47;;;;;;;0.00;0.00;;;;;;;;;;5092281;28;20213;-81
2023/01/08 13:20:19;;;;;;;0.00;0.00;;;;;;;;;;5092077;28;20048;-81
2023/01/08 13:22:51;;;;;;;0.00;0.00;;;;;;;;;;5094001;28;20123;-80
2023/01/08 13:25:20;;;;;;;0.00;0.00;;;;;;;;;;5092241;28;20073;-80
2023/01/08 13:27:46;;;;;;;0.00;0.00;;;;;;;;;;5092471;28;20067;-80
2023/01/08 13:30:31;;;;;;;0.00;0.00;;;;;;;;;;5091452;28;20044;-80
2023/01/08 13:32:57;;;;;;;0.00;0.00;;;;;;;;;;5092279;28;20043;-80
2023/01/08 13:35:30;;;;;;;0.00;0.00;;;;;;;;;;5091684;28;20048;-80
2023/01/08 13:38:16;;;;;;;0.00;0.00;;;;;;;;;;5091885;28;20052;-80
2023/01/08 13:40:45;;;;;;;0.00;0.00;;;;;;;;;;5093229;28;20044;-80
2023/01/08 13:43:17;;;;;;;0.00;0.00;;;;;;;;;;5092235;28;20044;-80
2023/01/08 13:45:47;;;;;;;0.00;0.00;;;;;;;;;;5091830;28;20433;-80
2023/01/08 13:48:23;;;;;;;0.00;0.00;;;;;;;;;;5091707;28;20050;-80
2023/01/08 13:50:50;;;;;;;0.00;0.00;;;;;;;;;;5093079;28;20438;-80
2023/01/08 13:53:16;;;;;;;0.00;0.00;;;;;;;;;;5091784;28;20040;-80
2023/01/08 13:55:45;;;;;;;0.00;0.00;;;;;;;;;;5091623;28;20036;-80
2023/01/08 13:58:20;;;;;;;0.00;0.00;;;;;;;;;;5091757;28;20561;-80
2023/01/08 14:00:47;;;;;;;0.00;0.00;;;;;;;;;;5092683;28;20054;-80
2023/01/08 14:03:26;;;;;;;0.00;0.00;;;;;;;;;;5091469;28;20040;-80
2023/01/08 14:05:53;;;;;;;0.00;0.00;;;;;;;;;;5092858;28;20032;-80
2023/01/08 14:08:23;;;;;;;0.00;0.00;;;;;;;;;;5074667;28;20044;-80
2023/01/08 14:10:49;;;;;;;0.00;0.00;;;;;;;;;;5091458;28;20178;-80
2023/01/08 14:13:17;;;;;;;0.00;0.00;;;;;;;;;;5074574;28;20044;-80
2023/01/08 14:15:43;;;;;;;0.00;0.00;;;;;;;;;;5090948;28;20059;-80
2023/01/08 14:18:11;;;;;;;0.00;0.00;;;;;;;;;;5091550;28;20063;-80
2023/01/08 14:20:38;;;;;;;0.00;0.00;;;;;;;;;;5091097;28;20128;-80
2023/01/08 14:23:18;;;;;;;0.00;0.00;;;;;;;;;;5091391;28;20479;-79
2023/01/08 14:25:47;;;;;;;0.00;0.00;;;;;;;;;;5092198;28;20032;-80
2023/01/08 14:28:18;;;;;;;0.00;0.00;;;;;;;;;;5074244;28;20055;-80
2023/01/08 14:30:51;;;;;;;0.00;0.00;;;;;;;;;;5092322;28;20044;-80
2023/01/08 14:33:20;;;;;;;0.00;0.00;;;;;;;;;;5090905;28;20212;-80
2023/01/08 14:35:46;;;;;;;0.20;0.08;;;;;;;;;;5092120;28;20051;-80
2023/01/08 14:38:14;;;;;;;0.00;0.00;;;;;;;;;;5091322;28;20062;-80
2023/01/08 14:40:42;;;;;;;0.00;0.00;;;;;;;;;;5093086;28;20054;-80
2023/01/08 14:43:10;;;;;;;0.00;0.00;;;;;;;;;;5097698;28;20073;-80
2023/01/08 14:45:37;;;;;;;0.00;0.00;;;;;;;;;;5097693;28;20140;-80
2023/01/08 14:48:16;;;;;;;0.00;0.00;;;;;;;;;;5097913;28;20072;-80
2023/01/08 14:50:43;;;;;;;0.00;0.00;;;;;;;;;;5097504;28;20032;-80
2023/01/08 14:53:15;;;;;;;0.00;0.00;;;;;;;;;;5080693;28;20036;-80